Time;durP1;ratioP1;P1;durP2;ratioP2;P2;SDS_P1;SDS_P2;PMS_P1;PMS_P2;Temp;Humidity;BMP_temperature;BMP_pressure;BME280_temperature;BME280_humidity;BME280_pressure;Samples;Min_cycle;Max_cycle;Signal;HPM_P1;HPM_P2
2022/01/06 00:01:03;;;;;;;4.77;2.40;;;6.00;99.90;;;;;;5046164;28;20253;-78
2022/01/06 00:03:32;;;;;;;5.93;2.30;;;6.00;99.90;;;;;;5051515;28;20184;-75
2022/01/06 00:06:04;;;;;;;3.80;2.37;;;6.10;99.90;;;;;;5053310;28;20187;-77
2022/01/06 00:08:30;;;;;;;4.00;2.20;;;6.10;99.90;;;;;;5065992;28;20276;-79
2022/01/06 00:10:55;;;;;;;4.47;2.57;;;6.10;99.90;;;;;;5054729;28;20271;-78
2022/01/06 00:13:32;;;;;;;4.60;2.50;;;6.10;99.90;;;;;;5056156;28;20231;-76
2022/01/06 00:16:10;;;;;;;8.10;2.80;;;6.10;99.90;;;;;;5057041;28;20275;-78
2022/01/06 00:23:07;;;;;;;6.13;2.80;;;6.10;99.90;;;;;;5058119;28;20275;-78
2022/01/06 00:24:08;;;;;;;5.20;3.47;;;6.10;99.90;;;;;;5071804;28;20238;-75
2022/01/06 00:26:33;;;;;;;6.90;3.27;;;6.10;99.90;;;;;;5088749;28;20169;-79
2022/01/06 00:28:59;;;;;;;6.60;3.40;;;6.10;99.90;;;;;;5055869;28;20181;-79
2022/01/06 00:31:27;;;;;;;5.07;3.20;;;6.10;99.90;;;;;;5056404;28;20310;-78
2022/01/06 00:33:57;;;;;;;6.83;3.13;;;6.20;99.90;;;;;;5053709;28;20271;-78
2022/01/06 00:36:26;;;;;;;7.43;3.10;;;6.20;99.90;;;;;;5059613;28;20252;-78
2022/01/06 00:39:01;;;;;;;4.93;3.20;;;6.20;99.90;;;;;;5046537;28;20198;-74
2022/01/06 00:41:26;;;;;;;7.13;3.27;;;6.20;99.90;;;;;;5056140;28;20183;-79
2022/01/06 00:43:52;;;;;;;8.50;3.30;;;6.20;99.90;;;;;;5057346;28;20184;-78
2022/01/06 00:46:18;;;;;;;6.13;3.23;;;6.20;99.90;;;;;;5058167;28;20207;-74
2022/01/06 00:48:43;;;;;;;9.77;4.10;;;6.20;99.90;;;;;;5065405;28;20187;-76
2022/01/06 00:51:12;;;;;;;5.93;3.00;;;6.20;99.90;;;;;;5059075;28;20269;-76
2022/01/06 00:53:37;;;;;;;7.57;3.53;;;6.20;99.90;;;;;;5057042;28;20192;-78
2022/01/06 00:56:06;;;;;;;5.57;3.17;;;6.20;99.90;;;;;;5058766;28;20215;-78
2022/01/06 00:58:31;;;;;;;8.53;3.60;;;6.20;99.90;;;;;;5056529;28;20215;-78
2022/01/06 01:00:59;;;;;;;7.57;3.50;;;6.20;99.90;;;;;;5094937;28;20180;-78
2022/01/06 01:03:27;;;;;;;8.53;3.30;;;6.20;99.90;;;;;;5057347;28;20203;-76
2022/01/06 01:05:55;;;;;;;8.40;3.20;;;6.20;99.90;;;;;;5066148;28;20405;-76
2022/01/06 01:08:25;;;;;;;5.47;3.10;;;6.30;99.90;;;;;;5057265;28;20169;-78
2022/01/06 01:10:56;;;;;;;7.93;3.17;;;6.20;99.90;;;;;;5057331;28;20187;-78
2022/01/06 01:13:29;;;;;;;8.57;3.20;;;6.30;99.90;;;;;;5056535;28;20235;-78
2022/01/06 01:15:59;;;;;;;8.43;2.90;;;6.30;99.90;;;;;;5057632;28;20211;-77
2022/01/06 01:18:25;;;;;;;8.53;2.83;;;6.30;99.90;;;;;;5047155;28;20204;-76
2022/01/06 01:20:55;;;;;;;6.50;2.73;;;6.30;99.90;;;;;;5057243;28;20196;-78
2022/01/06 01:23:21;;;;;;;7.87;2.90;;;6.30;99.90;;;;;;5045362;28;20192;-79
2022/01/06 01:25:47;;;;;;;6.87;3.20;;;6.30;99.90;;;;;;5090819;28;20207;-75
2022/01/06 01:28:18;;;;;;;5.57;2.83;;;6.30;99.90;;;;;;5056630;28;20278;-78
2022/01/06 01:33:38;;;;;;;6.83;3.07;;;6.30;99.90;;;;;;5042554;28;20212;-76
2022/01/06 01:36:04;;;;;;;6.17;2.57;;;6.30;99.90;;;;;;5056664;28;20212;-77
2022/01/06 01:38:36;;;;;;;8.57;2.83;;;6.30;99.90;;;;;;5056753;28;20169;-77
2022/01/06 01:41:06;;;;;;;5.73;2.73;;;6.20;99.90;;;;;;5052582;28;20234;-78
2022/01/06 01:43:34;;;;;;;8.63;2.67;;;6.20;99.90;;;;;;5054621;28;20168;-78
2022/01/06 01:46:09;;;;;;;7.87;2.13;;;6.20;99.90;;;;;;5051584;28;20305;-77
2022/01/06 01:48:42;;;;;;;5.17;2.23;;;6.20;99.90;;;;;;5055090;28;20187;-78
2022/01/06 01:51:08;;;;;;;4.00;2.10;;;6.20;99.90;;;;;;5055623;28;20177;-77
2022/01/06 01:53:41;;;;;;;4.67;1.87;;;6.10;99.90;;;;;;5062624;28;20177;-73
2022/01/06 01:56:09;;;;;;;8.00;2.40;;;6.10;99.90;;;;;;5058108;28;20198;-78
2022/01/06 01:58:38;;;;;;;4.77;2.20;;;6.10;99.90;;;;;;5056000;28;20222;-78
2022/01/06 02:01:09;;;;;;;6.70;2.07;;;6.00;99.90;;;;;;5084995;28;20192;-76
2022/01/06 02:03:35;;;;;;;5.20;2.40;;;6.00;99.90;;;;;;5057406;28;20165;-77
2022/01/06 02:06:01;;;;;;;5.93;1.80;;;5.90;99.90;;;;;;5059208;28;20184;-75
2022/01/06 02:08:27;;;;;;;5.73;1.57;;;5.90;99.90;;;;;;5054986;28;20207;-78
2022/01/06 02:10:54;;;;;;;5.30;1.97;;;5.90;99.90;;;;;;5057429;28;20554;-76
2022/01/06 02:13:28;;;;;;;5.43;2.00;;;5.80;99.90;;;;;;5055627;28;20179;-77
2022/01/06 02:15:54;;;;;;;4.83;2.00;;;5.80;99.90;;;;;;5048965;28;20243;-70
2022/01/06 02:18:19;;;;;;;5.43;2.00;;;5.80;99.90;;;;;;5051584;28;20201;-74
2022/01/06 02:20:45;;;;;;;5.50;1.80;;;5.80;99.90;;;;;;5054567;28;20192;-76
2022/01/06 02:23:13;;;;;;;4.80;1.90;;;5.70;99.90;;;;;;5066272;28;20188;-77
2022/01/06 02:25:39;;;;;;;4.10;1.50;;;5.70;99.90;;;;;;5085848;28;20188;-73
2022/01/06 02:28:07;;;;;;;6.87;2.00;;;5.70;99.90;;;;;;5055965;28;20184;-73
2022/01/06 02:30:34;;;;;;;5.53;1.97;;;5.60;99.90;;;;;;5081453;28;20172;-78
2022/01/06 02:33:01;;;;;;;4.07;1.47;;;5.60;99.90;;;;;;5087844;28;20177;-77
2022/01/06 02:35:30;;;;;;;6.10;1.60;;;5.60;99.90;;;;;;5052409;28;20236;-77
2022/01/06 02:38:03;;;;;;;6.47;1.60;;;5.60;99.90;;;;;;5054253;28;20188;-74
2022/01/06 02:40:32;;;;;;;6.00;1.93;;;5.60;99.90;;;;;;5085672;28;20169;-75
2022/01/06 02:42:59;;;;;;;6.17;1.80;;;5.50;99.90;;;;;;5051697;28;20205;-78
2022/01/06 02:45:27;;;;;;;7.33;2.10;;;5.50;99.90;;;;;;5055294;28;20181;-74
2022/01/06 02:47:55;;;;;;;5.90;1.63;;;5.50;99.90;;;;;;5051410;28;20307;-74
2022/01/06 02:50:21;;;;;;;7.73;2.00;;;5.50;99.90;;;;;;5060479;28;20181;-76
2022/01/06 02:52:47;;;;;;;6.20;1.90;;;5.50;99.90;;;;;;5049009;28;20306;-78
2022/01/06 02:55:14;;;;;;;5.53;2.10;;;5.40;99.90;;;;;;5055127;28;20259;-78
2022/01/06 02:57:43;;;;;;;5.10;1.97;;;5.50;99.90;;;;;;5078965;28;20326;-73
2022/01/06 03:00:14;;;;;;;5.23;1.73;;;5.40;99.90;;;;;;5052143;28;20191;-68
2022/01/06 03:02:45;;;;;;;4.07;1.67;;;5.40;99.90;;;;;;5053766;28;20205;-75
2022/01/06 03:05:12;;;;;;;3.50;1.63;;;5.40;99.90;;;;;;5050593;28;20322;-75
2022/01/06 03:07:39;;;;;;;3.77;1.40;;;5.50;99.90;;;;;;5052631;28;20219;-78
2022/01/06 03:10:08;;;;;;;5.37;1.60;;;5.50;99.90;;;;;;5055027;28;20201;-75
2022/01/06 03:12:43;;;;;;;5.20;1.60;;;5.50;99.90;;;;;;5043861;28;20176;-79
2022/01/06 03:15:18;;;;;;;5.77;1.87;;;5.50;99.90;;;;;;5048672;28;20204;-78
2022/01/06 03:17:48;;;;;;;3.57;1.50;;;5.50;99.90;;;;;;5054617;28;20189;-77
2022/01/06 03:20:15;;;;;;;5.47;1.83;;;5.50;99.90;;;;;;5045528;28;20266;-75
2022/01/06 03:22:41;;;;;;;8.13;1.83;;;5.50;99.90;;;;;;5053494;28;20172;-72
2022/01/06 03:25:11;;;;;;;9.07;2.10;;;5.60;99.90;;;;;;5065355;28;20188;-74
2022/01/06 03:27:38;;;;;;;4.93;1.80;;;5.60;99.90;;;;;;5051476;28;20199;-72
2022/01/06 03:30:05;;;;;;;4.47;1.40;;;5.60;99.90;;;;;;5054196;28;20185;-71
2022/01/06 03:32:36;;;;;;;7.13;1.73;;;5.60;99.90;;;;;;5057590;28;20172;-72
2022/01/06 03:35:03;;;;;;;5.73;1.97;;;5.60;99.90;;;;;;5063227;28;20207;-77
2022/01/06 03:37:28;;;;;;;4.53;1.60;;;5.60;99.90;;;;;;5050349;28;20627;-71
2022/01/06 03:39:54;;;;;;;7.83;1.90;;;5.60;99.90;;;;;;5050259;28;20219;-78
2022/01/06 03:42:20;;;;;;;5.90;1.60;;;5.60;99.90;;;;;;5050119;28;20177;-72
2022/01/06 03:44:49;;;;;;;5.87;1.70;;;5.60;99.90;;;;;;5054090;28;20204;-78
2022/01/06 03:47:20;;;;;;;7.00;2.00;;;5.60;99.90;;;;;;5054079;28;20172;-77
2022/01/06 03:49:47;;;;;;;6.40;1.67;;;5.60;99.90;;;;;;5055735;28;20193;-78
2022/01/06 03:52:13;;;;;;;6.40;1.70;;;5.60;99.90;;;;;;5063373;28;20204;-78
2022/01/06 03:54:39;;;;;;;4.47;1.63;;;5.60;99.90;;;;;;5086805;28;20211;-74
2022/01/06 03:57:07;;;;;;;5.23;2.37;;;5.60;99.90;;;;;;5054521;28;20172;-79
2022/01/06 03:59:35;;;;;;;5.37;1.57;;;5.60;99.90;;;;;;5054016;28;20196;-78
2022/01/06 04:02:02;;;;;;;7.57;1.83;;;5.60;99.90;;;;;;5054311;28;20185;-77
2022/01/06 04:04:28;;;;;;;7.60;1.60;;;5.70;99.90;;;;;;5051066;28;20235;-75
2022/01/06 04:06:53;;;;;;;5.50;1.60;;;5.70;99.90;;;;;;5057412;28;20232;-78
2022/01/06 04:09:19;;;;;;;9.50;1.70;;;5.70;99.90;;;;;;5054315;28;20196;-78
2022/01/06 04:11:48;;;;;;;5.80;1.70;;;5.70;99.90;;;;;;5056390;28;20185;-73
2022/01/06 04:14:15;;;;;;;8.20;2.17;;;5.70;99.90;;;;;;5053633;28;20294;-78
2022/01/06 04:16:42;;;;;;;7.47;1.90;;;5.70;99.90;;;;;;5062588;28;20168;-78
2022/01/06 04:19:10;;;;;;;5.33;1.60;;;5.70;99.90;;;;;;5059961;28;20227;-78
2022/01/06 04:21:38;;;;;;;6.97;1.93;;;5.70;99.90;;;;;;5060626;28;20249;-74
2022/01/06 04:24:06;;;;;;;5.50;1.70;;;5.70;99.90;;;;;;5054486;28;20219;-77
2022/01/06 04:26:34;;;;;;;4.10;1.60;;;5.70;99.90;;;;;;5057377;28;20168;-75
2022/01/06 04:29:00;;;;;;;5.17;1.93;;;5.70;99.90;;;;;;5085277;28;20165;-70
2022/01/06 04:31:28;;;;;;;6.77;1.90;;;5.70;99.90;;;;;;5059486;28;20276;-76
2022/01/06 04:33:54;;;;;;;6.00;1.80;;;5.70;99.90;;;;;;5057297;28;20234;-77
2022/01/06 04:36:20;;;;;;;5.60;1.80;;;5.70;99.90;;;;;;5058085;28;20192;-76
2022/01/06 04:38:48;;;;;;;5.37;1.80;;;5.70;99.90;;;;;;5051834;28;20178;-72
2022/01/06 04:41:13;;;;;;;6.43;2.10;;;5.70;99.90;;;;;;5072320;28;20197;-76
2022/01/06 04:43:41;;;;;;;4.77;1.50;;;5.70;99.90;;;;;;5065385;28;20237;-75
2022/01/06 04:46:12;;;;;;;6.67;1.73;;;5.70;99.90;;;;;;5053247;28;20181;-75
2022/01/06 04:48:37;;;;;;;6.23;1.70;;;5.80;99.90;;;;;;5050373;28;20196;-71
2022/01/06 04:51:04;;;;;;;6.33;1.70;;;5.70;99.90;;;;;;5054813;28;20199;-78
2022/01/06 04:53:32;;;;;;;8.57;2.37;;;5.80;99.90;;;;;;5088799;28;20200;-78
2022/01/06 04:55:59;;;;;;;5.70;1.70;;;5.80;99.90;;;;;;5090745;28;20216;-79
2022/01/06 04:58:26;;;;;;;7.57;1.40;;;5.70;99.90;;;;;;5057813;28;20177;-78
2022/01/06 05:00:53;;;;;;;4.30;1.40;;;5.70;99.90;;;;;;5053931;28;20185;-77
2022/01/06 05:03:19;;;;;;;3.90;1.60;;;5.70;99.90;;;;;;5062297;28;20289;-77
2022/01/06 05:05:49;;;;;;;5.33;1.50;;;5.70;99.90;;;;;;5053933;28;20205;-78
2022/01/06 05:08:17;;;;;;;4.93;1.50;;;5.70;99.90;;;;;;5062344;28;20181;-78
2022/01/06 05:10:43;;;;;;;6.87;2.13;;;5.70;99.90;;;;;;5059248;28;20313;-76
2022/01/06 05:13:12;;;;;;;5.13;1.60;;;5.70;99.90;;;;;;5091625;28;20184;-78
2022/01/06 05:15:37;;;;;;;6.53;1.60;;;5.70;99.90;;;;;;5055375;28;20223;-78
2022/01/06 05:18:04;;;;;;;6.13;1.77;;;5.80;99.90;;;;;;5056544;28;20185;-78
2022/01/06 05:20:30;;;;;;;5.00;1.40;;;5.70;99.90;;;;;;5057455;28;20196;-73
2022/01/06 05:22:57;;;;;;;3.23;1.27;;;5.70;99.90;;;;;;5082609;28;20201;-77
2022/01/06 05:25:27;;;;;;;5.47;1.60;;;5.70;99.90;;;;;;5093327;28;20169;-78
2022/01/06 05:27:56;;;;;;;3.10;1.37;;;5.70;99.90;;;;;;5054510;28;20192;-73
2022/01/06 05:30:24;;;;;;;4.73;1.50;;;5.70;99.90;;;;;;5051383;28;20197;-76
2022/01/06 05:32:53;;;;;;;7.00;1.50;;;5.70;99.90;;;;;;5057974;28;20242;-78
2022/01/06 05:35:19;;;;;;;4.33;1.70;;;5.70;99.90;;;;;;5054761;28;20196;-77
2022/01/06 05:37:47;;;;;;;3.27;1.30;;;5.70;99.90;;;;;;5057541;28;20199;-74
2022/01/06 05:40:13;;;;;;;7.27;1.70;;;5.70;99.90;;;;;;5054694;28;20182;-77
2022/01/06 05:42:40;;;;;;;3.83;1.40;;;5.60;99.90;;;;;;5084370;28;20211;-71
2022/01/06 05:45:07;;;;;;;3.77;1.50;;;5.60;99.90;;;;;;5057985;28;20176;-78
2022/01/06 05:47:32;;;;;;;7.10;1.57;;;5.60;99.90;;;;;;5059661;28;20233;-78
2022/01/06 05:49:58;;;;;;;3.60;1.43;;;5.50;99.90;;;;;;5049416;28;20268;-76
2022/01/06 05:52:24;;;;;;;4.23;1.50;;;5.50;99.90;;;;;;5048754;28;20188;-75
2022/01/06 05:54:54;;;;;;;3.93;1.43;;;5.50;99.90;;;;;;5050742;28;20204;-72
2022/01/06 05:57:22;;;;;;;5.50;1.47;;;5.50;99.90;;;;;;5053348;28;20197;-73
2022/01/06 05:59:48;;;;;;;5.63;1.70;;;5.50;99.90;;;;;;5083332;28;20259;-75
2022/01/06 06:02:15;;;;;;;8.70;1.90;;;5.50;99.90;;;;;;5085837;28;20275;-78
2022/01/06 06:04:41;;;;;;;4.77;1.40;;;5.50;99.90;;;;;;5057510;28;20254;-76
2022/01/06 06:07:07;;;;;;;6.10;1.53;;;5.50;99.90;;;;;;5084702;28;20184;-76
2022/01/06 06:09:34;;;;;;;5.67;1.70;;;5.50;99.90;;;;;;5048751;28;20247;-76
2022/01/06 06:12:02;;;;;;;7.23;1.73;;;5.50;99.90;;;;;;5053659;28;20220;-69
2022/01/06 06:14:28;;;;;;;7.30;1.90;;;5.50;99.90;;;;;;5055084;28;20207;-76
2022/01/06 06:16:54;;;;;;;7.97;1.57;;;5.50;99.90;;;;;;5051774;28;20279;-77
2022/01/06 06:19:19;;;;;;;4.07;1.30;;;5.50;99.90;;;;;;5057522;28;20168;-73
2022/01/06 06:21:45;;;;;;;6.83;1.90;;;5.50;99.90;;;;;;5053886;28;20181;-79
2022/01/06 06:24:10;;;;;;;6.23;2.07;;;5.50;99.90;;;;;;5083381;28;20248;-78
2022/01/06 06:26:41;;;;;;;4.67;1.40;;;5.50;99.90;;;;;;5051013;28;20165;-77
2022/01/06 06:29:06;;;;;;;4.53;1.63;;;5.50;99.90;;;;;;5064255;28;20233;-77
2022/01/06 06:31:32;;;;;;;3.63;1.60;;;5.50;99.90;;;;;;5070889;28;20204;-70
2022/01/06 06:34:00;;;;;;;5.37;1.50;;;5.50;99.90;;;;;;5054742;28;20203;-77
2022/01/06 06:36:30;;;;;;;5.80;1.37;;;5.50;99.90;;;;;;5049661;28;20339;-78
2022/01/06 06:38:56;;;;;;;4.30;1.70;;;5.50;99.90;;;;;;5055188;28;20204;-77
2022/01/06 06:41:23;;;;;;;8.23;2.90;;;5.50;99.90;;;;;;5056307;28;20180;-77
2022/01/06 06:43:49;;;;;;;5.90;1.80;;;5.50;99.90;;;;;;5056959;28;20187;-76
2022/01/06 06:46:17;;;;;;;4.40;1.57;;;5.40;99.90;;;;;;5057265;28;20188;-77
2022/01/06 06:48:42;;;;;;;4.13;1.70;;;5.40;99.90;;;;;;5089824;28;20270;-77
2022/01/06 06:51:11;;;;;;;4.67;1.70;;;5.40;99.90;;;;;;5055380;28;20231;-76
2022/01/06 06:53:36;;;;;;;6.53;2.17;;;5.40;99.90;;;;;;5055022;28;20181;-71
2022/01/06 06:56:04;;;;;;;3.77;1.70;;;5.40;99.90;;;;;;5089054;28;20201;-77
2022/01/06 06:58:32;;;;;;;3.47;1.57;;;5.40;99.90;;;;;;5065566;28;20196;-74
2022/01/06 07:00:58;;;;;;;7.37;2.00;;;5.30;99.90;;;;;;5054015;28;20173;-77
2022/01/06 07:03:23;;;;;;;5.27;2.00;;;5.30;99.90;;;;;;5058222;28;20187;-76
2022/01/06 07:05:52;;;;;;;5.43;1.83;;;5.30;99.90;;;;;;5056402;28;20238;-74
2022/01/06 07:08:18;;;;;;;4.30;1.93;;;5.30;99.90;;;;;;5050610;28;20181;-77
2022/01/06 07:10:48;;;;;;;5.07;1.77;;;5.30;99.90;;;;;;5056191;28;20187;-77
2022/01/06 07:13:18;;;;;;;6.30;1.73;;;5.20;99.90;;;;;;5058226;28;20204;-68
2022/01/06 07:15:44;;;;;;;4.10;1.60;;;5.20;99.90;;;;;;5053223;28;20308;-69
2022/01/06 07:18:10;;;;;;;4.63;1.90;;;5.20;99.90;;;;;;5057827;28;20215;-69
2022/01/06 07:20:37;;;;;;;4.43;1.67;;;5.20;99.90;;;;;;5094080;28;20180;-68
2022/01/06 07:23:02;;;;;;;5.80;2.00;;;5.20;99.90;;;;;;5050001;28;20173;-68
2022/01/06 07:25:28;;;;;;;6.17;2.30;;;5.10;99.90;;;;;;5063726;28;20214;-69
2022/01/06 07:27:54;;;;;;;5.07;2.10;;;5.10;99.90;;;;;;5055579;28;20357;-68
2022/01/06 07:30:20;;;;;;;7.37;2.37;;;5.10;99.90;;;;;;5052011;28;20180;-66
2022/01/06 07:32:48;;;;;;;6.67;2.27;;;5.10;99.90;;;;;;5055453;28;20206;-69
2022/01/06 07:35:18;;;;;;;5.37;2.00;;;5.10;99.90;;;;;;5057237;28;20203;-68
2022/01/06 07:37:46;;;;;;;4.63;2.20;;;5.10;99.90;;;;;;5066099;28;20193;-68
2022/01/06 07:40:12;;;;;;;4.87;2.33;;;5.10;99.90;;;;;;5057895;28;20302;-69
2022/01/06 07:42:43;;;;;;;4.10;2.53;;;5.10;99.90;;;;;;5052105;28;20248;-68
2022/01/06 07:45:09;;;;;;;4.77;2.33;;;5.10;99.90;;;;;;5050488;28;20207;-69
2022/01/06 07:47:43;;;;;;;6.47;2.43;;;5.10;99.90;;;;;;5056962;28;20184;-68
2022/01/06 07:50:09;;;;;;;6.27;2.43;;;5.10;99.90;;;;;;5048430;28;20430;-68
2022/01/06 07:52:35;;;;;;;7.13;2.97;;;5.10;99.90;;;;;;5059475;28;20216;-69
2022/01/06 07:55:03;;;;;;;9.67;2.90;;;5.10;99.90;;;;;;5059448;28;20227;-68
2022/01/06 07:57:31;;;;;;;5.07;2.83;;;5.10;99.90;;;;;;5054870;28;20196;-68
2022/01/06 07:59:57;;;;;;;5.27;2.67;;;5.10;99.90;;;;;;5062453;28;20203;-68
2022/01/06 08:02:22;;;;;;;7.27;3.00;;;5.10;99.90;;;;;;5059123;28;20248;-68
2022/01/06 08:04:50;;;;;;;6.47;2.87;;;5.10;99.90;;;;;;5059293;28;20185;-68
2022/01/06 08:07:18;;;;;;;4.90;2.60;;;5.10;99.90;;;;;;5060320;28;20241;-68
2022/01/06 08:09:47;;;;;;;5.60;2.87;;;5.10;99.90;;;;;;5041696;28;20208;-68
2022/01/06 08:12:12;;;;;;;6.80;2.80;;;5.10;99.90;;;;;;5052009;28;20286;-67
2022/01/06 08:14:43;;;;;;;7.07;3.10;;;5.10;99.90;;;;;;5058946;28;20266;-69
2022/01/06 08:17:08;;;;;;;6.93;3.17;;;5.10;99.90;;;;;;5058209;28;20173;-68
2022/01/06 08:19:36;;;;;;;7.63;2.73;;;5.10;99.90;;;;;;5055908;28;20184;-68
2022/01/06 08:22:02;;;;;;;7.63;2.87;;;5.10;99.90;;;;;;5058873;28;20192;-69
2022/01/06 08:24:28;;;;;;;6.40;3.20;;;5.20;99.90;;;;;;5058612;28;20325;-68
2022/01/06 08:26:56;;;;;;;8.77;3.27;;;5.10;99.90;;;;;;5061485;28;20298;-69
2022/01/06 08:29:24;;;;;;;5.47;2.60;;;5.20;99.90;;;;;;5058786;28;20197;-68
2022/01/06 08:31:49;;;;;;;5.87;3.00;;;5.20;99.90;;;;;;5058396;28;20212;-69
2022/01/06 08:34:15;;;;;;;5.27;2.73;;;5.20;99.90;;;;;;5090973;28;20223;-68
2022/01/06 08:36:43;;;;;;;6.87;3.13;;;5.20;99.90;;;;;;5058863;28;20230;-69
2022/01/06 08:39:08;;;;;;;8.33;3.90;;;5.20;99.90;;;;;;5060513;28;20179;-69
2022/01/06 08:41:35;;;;;;;6.60;2.93;;;5.30;99.90;;;;;;5058138;28;20172;-68
2022/01/06 08:44:00;;;;;;;6.77;3.00;;;5.30;99.90;;;;;;5059415;28;20374;-69
2022/01/06 08:46:26;;;;;;;6.70;3.30;;;5.40;99.90;;;;;;5056669;28;20283;-69
2022/01/06 08:48:52;;;;;;;6.60;3.30;;;5.40;99.90;;;;;;5058419;28;20230;-68
2022/01/06 08:51:18;;;;;;;6.27;3.17;;;5.50;99.90;;;;;;5059259;28;20237;-69
2022/01/06 08:53:44;;;;;;;6.60;3.30;;;5.50;99.90;;;;;;5061220;28;20196;-69
2022/01/06 08:56:10;;;;;;;9.93;3.70;;;5.60;99.90;;;;;;5057863;28;20235;-68
2022/01/06 08:58:38;;;;;;;7.90;3.60;;;5.70;99.90;;;;;;5063342;28;20222;-67
2022/01/06 09:01:03;;;;;;;9.07;3.93;;;5.80;99.90;;;;;;5064722;28;20196;-68
2022/01/06 09:03:31;;;;;;;9.63;3.57;;;5.80;99.90;;;;;;5058233;28;20185;-69
2022/01/06 09:05:57;;;;;;;7.00;3.57;;;5.90;99.90;;;;;;5058905;28;20180;-68
2022/01/06 09:08:22;;;;;;;6.63;3.60;;;6.00;99.90;;;;;;5049737;28;20322;-69
2022/01/06 09:10:50;;;;;;;5.80;3.10;;;6.10;99.90;;;;;;5054019;28;20192;-68
2022/01/06 09:13:18;;;;;;;7.50;3.40;;;6.20;99.90;;;;;;5090978;28;20185;-67
2022/01/06 09:15:44;;;;;;;6.40;3.27;;;6.20;99.90;;;;;;5054342;28;20236;-68
2022/01/06 09:18:09;;;;;;;7.87;3.13;;;6.30;99.90;;;;;;5058556;28;20216;-69
2022/01/06 09:20:37;;;;;;;7.87;3.30;;;6.30;99.90;;;;;;5061186;28;20185;-68
2022/01/06 09:23:05;;;;;;;8.53;3.63;;;6.30;99.90;;;;;;5057534;28;20199;-68
2022/01/06 09:25:31;;;;;;;8.87;3.30;;;6.40;99.90;;;;;;5057577;28;20187;-68
2022/01/06 09:27:59;;;;;;;7.53;3.73;;;6.50;99.90;;;;;;5089826;28;20186;-68
2022/01/06 09:30:27;;;;;;;9.10;3.63;;;6.60;99.90;;;;;;5056849;28;20291;-68
2022/01/06 09:32:55;;;;;;;6.13;3.33;;;6.80;99.90;;;;;;5057683;28;20189;-68
2022/01/06 09:35:22;;;;;;;7.33;3.60;;;7.00;99.90;;;;;;5056910;28;20227;-71
2022/01/06 09:37:48;;;;;;;6.87;3.40;;;7.10;99.90;;;;;;5053971;28;20201;-69
2022/01/06 09:40:16;;;;;;;8.73;3.97;;;7.20;99.90;;;;;;5052909;28;20215;-69
2022/01/06 09:42:46;;;;;;;9.33;3.97;;;7.30;99.90;;;;;;5061396;28;20180;-69
2022/01/06 09:45:12;;;;;;;14.50;4.57;;;7.30;99.90;;;;;;5057339;28;20180;-69
2022/01/06 09:47:39;;;;;;;6.87;3.80;;;7.30;99.90;;;;;;5057037;28;20185;-69
2022/01/06 09:50:10;;;;;;;8.23;3.57;;;7.40;99.90;;;;;;5063722;28;20197;-68
2022/01/06 09:52:38;;;;;;;8.87;4.00;;;7.40;99.90;;;;;;5057768;28;20180;-69
2022/01/06 09:55:06;;;;;;;10.90;4.37;;;7.40;99.90;;;;;;5089975;28;20292;-69
2022/01/06 09:57:31;;;;;;;6.50;3.70;;;7.50;99.90;;;;;;5065838;28;20191;-69
2022/01/06 09:59:57;;;;;;;8.57;3.53;;;7.50;99.90;;;;;;5056904;28;20173;-69
2022/01/06 10:02:36;;;;;;;7.30;4.10;;;7.50;99.90;;;;;;5062708;28;20189;-68
2022/01/06 10:05:05;;;;;;;7.07;4.20;;;7.50;99.90;;;;;;5057320;28;20177;-68
2022/01/06 10:07:41;;;;;;;7.33;3.20;;;7.50;99.90;;;;;;5052154;28;20258;-69
2022/01/06 10:10:14;;;;;;;9.80;3.90;;;7.50;99.90;;;;;;5057234;28;20200;-69
2022/01/06 10:12:41;;;;;;;11.33;4.13;;;7.40;99.90;;;;;;5055836;28;20176;-69
2022/01/06 10:15:23;;;;;;;8.07;3.50;;;7.30;99.90;;;;;;5057753;28;20207;-69
2022/01/06 10:17:55;;;;;;;6.27;3.23;;;7.30;99.90;;;;;;5052830;28;20247;-69
2022/01/06 10:20:28;;;;;;;8.37;3.00;;;7.20;99.90;;;;;;5056920;28;20168;-69
2022/01/06 10:22:56;;;;;;;5.20;2.97;;;7.10;99.90;;;;;;5059023;28;20173;-69
2022/01/06 10:25:28;;;;;;;4.93;2.47;;;7.10;99.90;;;;;;5056888;28;20212;-69
2022/01/06 10:27:56;;;;;;;7.73;2.93;;;7.00;99.90;;;;;;5057408;28;20201;-68
2022/01/06 10:30:26;;;;;;;8.70;3.00;;;7.00;99.90;;;;;;5056193;28;20212;-69
2022/01/06 10:32:58;;;;;;;4.90;2.67;;;6.90;99.90;;;;;;5057028;28;20208;-69
2022/01/06 10:35:24;;;;;;;4.57;2.70;;;6.80;99.90;;;;;;5066088;28;20196;-69
2022/01/06 10:37:52;;;;;;;9.57;3.50;;;6.70;99.90;;;;;;5060977;28;20278;-69
2022/01/06 10:40:24;;;;;;;5.80;3.20;;;6.70;99.90;;;;;;5055644;28;20172;-69
2022/01/06 10:42:53;;;;;;;4.43;2.47;;;6.70;99.90;;;;;;5056095;28;20173;-69
2022/01/06 10:45:24;;;;;;;6.23;2.23;;;6.60;99.90;;;;;;5061188;28;20169;-70
2022/01/06 10:47:52;;;;;;;5.53;2.20;;;6.50;99.90;;;;;;5052981;28;20173;-69
2022/01/06 10:50:23;;;;;;;5.93;2.00;;;6.50;99.90;;;;;;5056131;28;20287;-70
2022/01/06 10:52:52;;;;;;;6.23;2.47;;;6.40;99.90;;;;;;5053935;28;20192;-69
2022/01/06 10:55:17;;;;;;;7.27;2.90;;;6.40;99.90;;;;;;5051723;28;20230;-69
2022/01/06 10:57:58;;;;;;;4.67;2.40;;;6.30;99.90;;;;;;5056640;28;22259;-69
2022/01/06 11:00:32;;;;;;;5.60;2.30;;;6.30;99.90;;;;;;5084084;28;20176;-69
2022/01/06 11:03:11;;;;;;;6.70;3.03;;;6.30;99.90;;;;;;5055707;28;20197;-69
2022/01/06 11:05:39;;;;;;;5.07;2.90;;;6.30;99.90;;;;;;5061695;28;20267;-69
2022/01/06 11:08:09;;;;;;;11.20;3.30;;;6.30;99.90;;;;;;5055268;28;20214;-69
2022/01/06 11:10:37;;;;;;;5.23;3.07;;;6.30;99.90;;;;;;5056634;28;20230;-69
2022/01/06 11:13:05;;;;;;;6.70;3.47;;;6.30;99.90;;;;;;5056159;28;20276;-66
2022/01/06 11:15:35;;;;;;;8.13;4.13;;;6.40;99.90;;;;;;5069444;28;20261;-68
2022/01/06 11:18:03;;;;;;;6.73;3.57;;;6.40;99.90;;;;;;5058881;28;20176;-69
2022/01/06 11:20:29;;;;;;;6.30;3.33;;;6.40;99.90;;;;;;5054659;28;20164;-68
2022/01/06 11:23:01;;;;;;;10.17;4.03;;;6.50;99.90;;;;;;5078237;28;20526;-69
2022/01/06 11:25:38;;;;;;;7.60;4.17;;;6.50;99.90;;;;;;5058985;28;20188;-69
2022/01/06 11:28:15;;;;;;;11.70;4.50;;;6.60;99.90;;;;;;5059326;28;20203;-69
2022/01/06 11:30:52;;;;;;;7.37;4.23;;;6.60;99.90;;;;;;5067241;28;20254;-68
2022/01/06 11:33:18;;;;;;;11.50;4.70;;;6.70;99.90;;;;;;5040692;28;20240;-68
2022/01/06 11:35:49;;;;;;;9.17;4.17;;;6.80;99.90;;;;;;5057115;28;20204;-69
2022/01/06 11:38:21;;;;;;;8.33;4.67;;;6.80;99.90;;;;;;5056423;28;20271;-68
2022/01/06 11:40:50;;;;;;;8.33;4.00;;;6.90;99.90;;;;;;5053979;28;20195;-69
2022/01/06 11:43:16;;;;;;;9.87;4.60;;;6.90;99.90;;;;;;5046847;28;20211;-68
2022/01/06 11:45:43;;;;;;;6.73;4.03;;;7.00;99.90;;;;;;5053895;28;20200;-69
2022/01/06 11:48:17;;;;;;;11.13;4.17;;;7.10;99.90;;;;;;5048868;28;20200;-68
2022/01/06 11:50:50;;;;;;;10.03;4.07;;;7.10;99.90;;;;;;5055432;28;20180;-69
2022/01/06 11:53:31;;;;;;;8.80;4.13;;;7.20;99.90;;;;;;5055357;28;20264;-69
2022/01/06 11:56:11;;;;;;;9.87;4.37;;;7.20;99.90;;;;;;5056313;28;20239;-68
2022/01/06 11:58:37;;;;;;;7.93;4.00;;;7.30;99.90;;;;;;5056596;28;20550;-69
2022/01/06 12:01:06;;;;;;;8.30;4.60;;;7.30;99.90;;;;;;5056978;28;20184;-69
2022/01/06 12:03:39;;;;;;;6.67;4.40;;;7.40;99.90;;;;;;5054674;28;20216;-69
2022/01/06 12:06:09;;;;;;;8.97;4.43;;;7.60;99.90;;;;;;5048989;28;20204;-69
2022/01/06 12:08:40;;;;;;;7.43;4.13;;;7.70;99.90;;;;;;5056050;28;20200;-69
2022/01/06 12:11:19;;;;;;;7.17;4.03;;;7.80;99.90;;;;;;5052454;28;20177;-69
2022/01/06 12:13:50;;;;;;;8.50;4.60;;;8.00;99.90;;;;;;5088554;28;20289;-69
2022/01/06 12:16:32;;;;;;;8.07;4.23;;;8.10;99.90;;;;;;5060238;28;20269;-72
2022/01/06 12:19:03;;;;;;;7.00;3.83;;;8.10;99.90;;;;;;5051012;28;20176;-69
2022/01/06 12:21:31;;;;;;;10.53;4.47;;;8.10;99.90;;;;;;5059487;28;20196;-69
2022/01/06 12:24:04;;;;;;;7.70;3.73;;;8.10;99.90;;;;;;5054463;28;20177;-69
2022/01/06 12:26:31;;;;;;;9.43;4.03;;;8.10;99.90;;;;;;5054600;28;20181;-69
2022/01/06 12:28:57;;;;;;;7.93;4.33;;;8.20;99.90;;;;;;5055611;28;20709;-69
2022/01/06 12:31:26;;;;;;;11.63;4.20;;;8.20;99.90;;;;;;5088629;28;20183;-69
2022/01/06 12:33:58;;;;;;;8.63;4.13;;;8.20;99.90;;;;;;5055716;28;20200;-69
2022/01/06 12:36:25;;;;;;;7.60;3.40;;;8.20;99.90;;;;;;5060395;28;20215;-69
2022/01/06 12:38:51;;;;;;;9.40;4.07;;;8.20;99.90;;;;;;5058733;28;20176;-69
2022/01/06 12:41:26;;;;;;;6.93;3.83;;;8.20;99.90;;;;;;5056731;28;20334;-69
2022/01/06 12:43:52;;;;;;;7.57;3.87;;;8.20;99.90;;;;;;5059098;28;20175;-68
2022/01/06 12:46:21;;;;;;;8.50;4.63;;;8.30;99.90;;;;;;5060182;28;20210;-68
2022/01/06 12:48:51;;;;;;;11.90;4.07;;;8.40;99.90;;;;;;5042192;28;20266;-69
2022/01/06 12:51:26;;;;;;;8.20;4.10;;;8.50;99.90;;;;;;5069013;28;20187;-69
2022/01/06 12:54:10;;;;;;;9.63;4.10;;;8.60;99.90;;;;;;5062434;28;20264;-68
2022/01/06 12:56:41;;;;;;;8.33;3.17;;;8.60;99.90;;;;;;5074569;28;20315;-68
2022/01/06 12:59:11;;;;;;;9.07;3.60;;;8.60;99.90;;;;;;5092690;28;20200;-69
2022/01/06 13:01:40;;;;;;;6.03;3.23;;;8.50;99.90;;;;;;5062478;28;20185;-69
2022/01/06 13:04:08;;;;;;;13.47;4.10;;;8.50;99.90;;;;;;5054941;28;20184;-69
2022/01/06 13:06:35;;;;;;;8.43;3.40;;;8.40;99.90;;;;;;5058207;28;20196;-68
2022/01/06 13:09:17;;;;;;;7.03;3.27;;;8.40;99.90;;;;;;5075409;28;20271;-69